Time;durP1;ratioP1;P1;durP2;ratioP2;P2;SDS_P1;SDS_P2;PMS_P1;PMS_P2;Temp;Humidity;BMP_temperature;BMP_pressure;BME280_temperature;BME280_humidity;BME280_pressure;Samples;Min_cycle;Max_cycle;Signal;HPM_P1;HPM_P2
2022/02/18 00:00:54;;;;;;;8.05;4.37;;;;;;;3.71;66.75;95529.13;1699590;83;20978;-84
2022/02/18 00:03:19;;;;;;;7.33;2.47;;;;;;;3.73;66.89;95527.69;1698917;84;20983;-84
2022/02/18 00:05:45;;;;;;;4.45;2.35;;;;;;;3.71;66.93;95527.84;1699195;84;20958;-85
2022/02/18 00:08:10;;;;;;;6.03;3.12;;;;;;;3.69;67.00;95532.83;1699263;84;21025;-84
2022/02/18 00:10:36;;;;;;;5.12;3.10;;;;;;;3.67;67.04;95540.70;1679070;84;20991;-84
2022/02/18 00:13:02;;;;;;;7.33;3.35;;;;;;;3.67;67.22;95545.03;1699172;84;21010;-84
2022/02/18 00:15:28;;;;;;;5.15;2.60;;;;;;;3.66;67.28;95543.43;1699111;84;21349;-84
2022/02/18 00:17:54;;;;;;;67.58;26.57;;;;;;;3.64;66.91;95555.63;1699066;84;21421;-84
2022/02/18 00:20:20;;;;;;;21.82;8.13;;;;;;;3.65;67.00;95540.54;1692893;83;21098;-84
2022/02/18 00:22:46;;;;;;;11.48;4.60;;;;;;;3.64;66.96;95559.00;1688887;85;21067;-84
2022/02/18 00:25:11;;;;;;;8.70;3.77;;;;;;;3.65;66.91;95564.95;1688995;85;21023;-84
2022/02/18 00:27:39;;;;;;;8.20;3.90;;;;;;;3.66;66.95;95571.69;1689035;85;21543;-84
2022/02/18 00:30:06;;;;;;;8.60;4.05;;;;;;;3.67;66.77;95583.57;1688962;85;20948;-84
2022/02/18 00:32:32;;;;;;;7.67;3.22;;;;;;;3.65;66.62;95586.78;1689014;85;21154;-84
2022/02/18 00:34:58;;;;;;;6.62;2.83;;;;;;;3.66;66.82;95597.38;1689112;85;21066;-84
2022/02/18 00:37:25;;;;;;;4.72;2.60;;;;;;;3.63;66.66;95596.41;1688565;85;21075;-84
2022/02/18 00:39:51;;;;;;;4.53;2.65;;;;;;;3.61;66.47;95612.80;1689048;85;21011;-84
2022/02/18 00:42:17;;;;;;;4.25;2.15;;;;;;;3.60;65.85;95616.80;1688908;85;21035;-84
2022/02/18 00:44:43;;;;;;;4.00;1.98;;;;;;;3.57;65.41;95605.53;1688961;85;21046;-84
2022/02/18 00:47:10;;;;;;;4.92;2.33;;;;;;;3.52;65.53;95613.72;1688894;85;20944;-84
2022/02/18 00:49:37;;;;;;;6.10;2.83;;;;;;;3.48;65.45;95615.48;1688841;85;21086;-84
2022/02/18 00:52:04;;;;;;;7.60;3.60;;;;;;;3.45;65.58;95627.36;1688540;85;21023;-85
2022/02/18 00:54:30;;;;;;;8.00;3.45;;;;;;;3.42;65.65;95622.06;1689030;85;20960;-84
2022/02/18 00:56:56;;;;;;;5.75;2.80;;;;;;;3.38;65.85;95627.16;1688773;85;21412;-84
2022/02/18 00:59:22;;;;;;;4.97;2.87;;;;;;;3.35;65.97;95631.33;1688757;85;21003;-84
2022/02/18 01:01:47;;;;;;;5.22;2.58;;;;;;;3.35;66.28;95630.05;1683861;83;21019;-84
2022/02/18 01:04:13;;;;;;;4.35;2.37;;;;;;;3.34;66.53;95638.70;1688904;85;21426;-84
2022/02/18 01:06:40;;;;;;;7.47;2.55;;;;;;;3.27;66.73;95634.69;1688949;85;20987;-85
2022/02/18 01:09:05;;;;;;;7.10;3.02;;;;;;;3.34;66.90;95641.75;1688833;85;21422;-84
2022/02/18 01:11:31;;;;;;;5.58;2.45;;;;;;;3.35;67.10;95651.88;1688879;85;20963;-84
2022/02/18 01:13:57;;;;;;;7.40;3.30;;;;;;;3.36;67.32;95654.77;1688794;85;21066;-84
2022/02/18 01:16:23;;;;;;;5.28;2.52;;;;;;;3.36;67.19;95666.80;1688907;85;20999;-84
2022/02/18 01:18:48;;;;;;;4.30;3.17;;;;;;;3.35;67.58;95664.70;1688729;85;21062;-84
2022/02/18 01:21:15;;;;;;;5.70;2.98;;;;;;;3.33;67.56;95669.20;1688709;83;21054;-84
2022/02/18 01:23:41;;;;;;;6.47;3.55;;;;;;;3.33;67.47;95676.09;1688955;85;21011;-84
2022/02/18 01:26:07;;;;;;;5.97;3.12;;;;;;;3.30;67.49;95669.52;1688894;85;21005;-84
2022/02/18 01:28:34;;;;;;;6.45;3.50;;;;;;;3.29;67.48;95682.83;1688820;85;22012;-84
2022/02/18 01:31:00;;;;;;;8.20;3.08;;;;;;;3.28;67.59;95680.42;1688907;85;21055;-84
2022/02/18 01:33:26;;;;;;;9.13;3.27;;;;;;;3.28;67.71;95679.94;1689000;85;21402;-84
2022/02/18 01:35:51;;;;;;;6.35;3.52;;;;;;;3.28;67.66;95682.98;1688896;85;21066;-85
2022/02/18 01:38:17;;;;;;;5.75;2.80;;;;;;;3.30;67.73;95680.58;1688918;85;21002;-84
2022/02/18 01:40:44;;;;;;;6.85;3.20;;;;;;;3.30;68.08;95677.22;1688861;85;21398;-84
2022/02/18 01:43:10;;;;;;;8.13;3.40;;;;;;;3.28;68.22;95685.55;1688867;85;20975;-84
2022/02/18 01:45:35;;;;;;;5.62;2.85;;;;;;;3.26;68.37;95694.70;1688945;85;21492;-84
2022/02/18 01:48:01;;;;;;;7.92;2.90;;;;;;;3.26;68.44;95692.13;1688794;85;21006;-84
2022/02/18 01:50:27;;;;;;;4.50;2.85;;;;;;;3.25;68.77;95687.13;1669275;85;21030;-84
2022/02/18 01:52:54;;;;;;;4.40;2.72;;;;;;;3.23;68.85;95709.09;1688751;85;21054;-84
2022/02/18 01:55:21;;;;;;;7.78;2.85;;;;;;;3.20;68.96;95702.98;1688927;85;21062;-84
2022/02/18 01:57:53;;;;;;;5.83;3.25;;;;;;;3.18;69.12;95707.95;1688858;85;21018;-84
2022/02/18 02:00:23;;;;;;;8.03;3.02;;;;;;;3.18;69.13;95710.52;1688143;83;20983;-85
2022/02/18 02:02:49;;;;;;;8.25;2.67;;;;;;;3.19;69.29;95705.72;1688141;85;20971;-84
2022/02/18 02:05:15;;;;;;;6.90;3.08;;;;;;;3.15;69.26;95697.52;1688683;85;20995;-84
2022/02/18 02:07:43;;;;;;;8.60;3.33;;;;;;;3.13;69.23;95690.93;1688857;85;20977;-83
2022/02/18 02:10:15;;;;;;;13.93;6.67;;;;;;;3.11;69.28;95701.35;1688788;85;21353;-84
2022/02/18 02:12:50;;;;;;;7.03;3.85;;;;;;;3.09;69.37;95707.56;1687427;85;21439;-84
2022/02/18 02:15:16;;;;;;;5.55;3.60;;;;;;;3.06;69.63;95711.73;1688917;85;20991;-85
2022/02/18 02:17:42;;;;;;;8.80;3.50;;;;;;;2.98;69.76;95706.89;1688766;85;20997;-84
2022/02/18 02:20:09;;;;;;;4.22;2.50;;;;;;;2.94;69.87;95712.48;1688730;83;21106;-84
2022/02/18 02:22:35;;;;;;;5.83;2.83;;;;;;;2.88;70.02;95707.45;1688860;85;21041;-84
2022/02/18 02:25:01;;;;;;;4.78;2.40;;;;;;;2.86;70.18;95706.00;1688854;85;21034;-84
2022/02/18 02:27:27;;;;;;;6.30;2.65;;;;;;;2.82;70.43;95703.41;1688776;85;21429;-84
2022/02/18 02:29:53;;;;;;;5.95;3.00;;;;;;;2.79;70.25;95700.67;1669257;85;21074;-84
2022/02/18 02:32:19;;;;;;;5.45;3.10;;;;;;;2.78;70.26;95696.50;1688757;85;21396;-84
2022/02/18 02:34:44;;;;;;;5.42;2.80;;;;;;;2.79;70.49;95708.38;1688811;85;21022;-83
2022/02/18 02:37:10;;;;;;;5.40;3.05;;;;;;;2.77;70.71;95716.70;1689025;85;20966;-84
2022/02/18 02:39:37;;;;;;;3.90;2.75;;;;;;;2.75;70.82;95712.17;1688908;85;21396;-83
2022/02/18 02:42:04;;;;;;;7.67;2.65;;;;;;;2.73;70.81;95716.64;1688877;85;21042;-84
2022/02/18 02:44:30;;;;;;;4.55;3.05;;;;;;;2.72;70.88;95712.47;1688839;85;21086;-84
2022/02/18 02:46:56;;;;;;;7.08;2.92;;;;;;;2.69;70.99;95721.28;1688874;85;21074;-82
2022/02/18 02:49:22;;;;;;;6.85;3.15;;;;;;;2.68;71.26;95720.14;1668935;85;21519;-84
2022/02/18 02:51:48;;;;;;;4.30;2.98;;;;;;;2.68;71.02;95736.34;1689020;85;21075;-83
2022/02/18 02:54:14;;;;;;;8.65;4.03;;;;;;;2.69;71.62;95730.73;1688569;85;21406;-84
2022/02/18 02:56:40;;;;;;;6.72;2.80;;;;;;;2.68;71.24;95738.91;1688724;85;21054;-84
2022/02/18 02:59:06;;;;;;;6.83;3.35;;;;;;;2.68;71.20;95737.62;1688975;85;21031;-83
2022/02/18 03:01:31;;;;;;;3.50;2.37;;;;;;;2.67;71.05;95737.30;1687145;83;21456;-84
2022/02/18 03:03:57;;;;;;;3.77;2.50;;;;;;;2.65;70.30;95740.49;1675176;85;21059;-84
2022/02/18 03:06:23;;;;;;;4.15;2.25;;;;;;;2.64;70.21;95740.64;1659616;86;21011;-84
2022/02/18 03:08:49;;;;;;;5.70;2.12;;;;;;;2.59;69.97;95746.19;1659696;86;21043;-84
2022/02/18 03:11:14;;;;;;;4.55;2.90;;;;;;;2.57;69.72;95756.27;1640674;86;20996;-84
2022/02/18 03:13:41;;;;;;;3.98;2.47;;;;;;;2.52;69.65;95755.44;1659747;86;21058;-84
2022/02/18 03:16:07;;;;;;;4.70;2.50;;;;;;;2.49;69.53;95753.18;1659605;86;20992;-83
2022/02/18 03:18:33;;;;;;;3.95;2.87;;;;;;;2.48;69.42;95752.05;1659690;86;21010;-84
2022/02/18 03:20:59;;;;;;;5.53;3.33;;;;;;;2.46;69.42;95763.73;1659617;84;21465;-84
2022/02/18 03:23:24;;;;;;;4.75;2.50;;;;;;;2.46;69.42;95766.30;1659610;86;21019;-83
2022/02/18 03:25:50;;;;;;;4.00;3.20;;;;;;;2.44;69.50;95774.62;1659714;86;20979;-84
2022/02/18 03:28:16;;;;;;;5.40;3.02;;;;;;;2.44;69.60;95769.94;1659614;86;21381;-84
2022/02/18 03:30:42;;;;;;;4.87;2.60;;;;;;;2.43;69.50;95760.63;1659695;86;20980;-84
2022/02/18 03:33:10;;;;;;;4.97;2.55;;;;;;;2.40;69.68;95763.82;1640581;86;21055;-83
2022/02/18 03:35:35;;;;;;;3.62;2.30;;;;;;;2.40;69.54;95770.70;1659680;86;21055;-84
2022/02/18 03:38:01;;;;;;;5.62;2.95;;;;;;;2.17;69.62;95733.17;1659607;86;20995;-84
2022/02/18 03:40:27;;;;;;;6.05;3.92;;;;;;;2.37;69.69;95770.53;1659685;86;21027;-84
2022/02/18 03:42:53;;;;;;;8.60;4.50;;;;;;;2.35;69.71;95780.13;1659585;86;21397;-83
2022/02/18 03:45:18;;;;;;;7.55;3.60;;;;;;;2.33;69.79;95783.80;1659553;86;21055;-84
2022/02/18 03:47:44;;;;;;;3.50;2.70;;;;;;;2.32;69.75;95786.84;1659737;86;21011;-84
2022/02/18 03:50:10;;;;;;;4.70;2.90;;;;;;;2.31;69.73;95789.55;1659737;86;21007;-84
2022/02/18 03:52:36;;;;;;;4.33;2.72;;;;;;;2.33;69.81;95799.17;1659281;86;22230;-84
2022/02/18 03:55:02;;;;;;;6.08;3.05;;;;;;;2.34;69.81;95796.94;1659700;86;21082;-84
2022/02/18 03:57:27;;;;;;;6.60;2.70;;;;;;;2.35;70.11;95801.11;1659728;86;21102;-84
2022/02/18 03:59:53;;;;;;;5.50;2.50;;;;;;;2.38;70.05;95809.31;1659557;86;21058;-84
2022/02/18 04:02:19;;;;;;;4.70;2.10;;;;;;;2.40;69.92;95808.70;1640620;86;20995;-84
2022/02/18 04:04:44;;;;;;;5.70;2.30;;;;;;;2.45;69.98;95807.00;1659704;86;21445;-84
2022/02/18 04:07:11;;;;;;;4.55;2.27;;;;;;;2.47;69.81;95810.70;1640722;86;20971;-84
2022/02/18 04:09:38;;;;;;;4.10;1.80;;;;;;;2.50;69.70;95812.97;1659670;86;21410;-84
2022/02/18 04:12:05;;;;;;;4.47;1.80;;;;;;;2.51;69.65;95814.58;1659625;86;20991;-84
2022/02/18 04:14:30;;;;;;;3.70;1.98;;;;;;;2.52;69.59;95823.41;1659620;86;21082;-84
2022/02/18 04:16:56;;;;;;;4.70;2.95;;;;;;;2.54;69.38;95826.63;1659659;86;21007;-84
2022/02/18 04:19:22;;;;;;;7.33;2.27;;;;;;;2.55;69.05;95829.52;1659472;86;21032;-84
2022/02/18 04:21:48;;;;;;;5.70;2.52;;;;;;;2.56;68.98;95829.84;1659469;85;21016;-84
2022/02/18 04:24:13;;;;;;;7.37;2.40;;;;;;;2.57;69.02;95832.73;1659785;86;21386;-84
2022/02/18 04:26:40;;;;;;;16.20;6.92;;;;;;;2.56;68.91;95826.00;1659592;86;21015;-84
2022/02/18 04:29:06;;;;;;;4.80;3.65;;;;;;;2.57;68.93;95830.66;1659628;86;21076;-84
2022/02/18 04:31:33;;;;;;;3.75;2.35;;;;;;;2.55;68.67;95828.23;1659649;86;21785;-84
2022/02/18 04:33:59;;;;;;;5.28;2.25;;;;;;;2.54;68.65;95842.02;1659569;86;21031;-85
2022/02/18 04:36:24;;;;;;;5.25;2.42;;;;;;;2.54;68.61;95830.47;1659624;86;21007;-84
2022/02/18 04:38:51;;;;;;;4.40;2.60;;;;;;;2.54;68.70;95838.16;1659584;86;21003;-84
2022/02/18 04:41:16;;;;;;;3.60;2.17;;;;;;;2.52;68.99;95841.36;1659780;86;21055;-84
2022/02/18 04:43:42;;;;;;;2.00;1.80;;;;;;;2.52;68.96;95843.11;1659622;86;21032;-84
2022/02/18 04:46:08;;;;;;;3.00;2.00;;;;;;;2.52;69.00;95841.83;1659661;86;21039;-84
2022/02/18 04:48:33;;;;;;;8.83;2.60;;;;;;;2.48;69.12;95836.67;1659651;86;21369;-84
2022/02/18 04:50:59;;;;;;;4.53;2.40;;;;;;;2.46;69.10;95846.27;1659630;86;21059;-84
2022/02/18 04:53:25;;;;;;;5.87;2.45;;;;;;;2.43;69.18;95843.48;1659616;86;21035;-84
2022/02/18 04:55:51;;;;;;;5.65;2.70;;;;;;;2.41;69.11;95843.64;1659748;86;21421;-84
2022/02/18 04:58:17;;;;;;;4.28;2.40;;;;;;;2.39;69.18;95840.89;1659652;86;21019;-84
2022/02/18 05:00:43;;;;;;;3.70;2.27;;;;;;;2.36;69.06;95852.25;1659679;86;20963;-84
2022/02/18 05:03:08;;;;;;;4.80;2.50;;;;;;;2.34;68.99;95843.89;1659730;86;21350;-84
2022/02/18 05:05:34;;;;;;;5.53;2.22;;;;;;;2.33;68.98;95856.39;1659727;86;21019;-84
2022/02/18 05:08:00;;;;;;;4.97;2.62;;;;;;;2.32;68.98;95844.52;1659665;86;20979;-84
2022/02/18 05:10:26;;;;;;;3.33;2.20;;;;;;;2.32;68.74;95848.36;1659761;86;20976;-84
2022/02/18 05:12:51;;;;;;;5.62;2.62;;;;;;;2.30;68.69;95848.98;1659645;86;20964;-84
2022/02/18 05:15:17;;;;;;;8.28;2.95;;;;;;;2.30;68.71;95850.75;1659947;86;20971;-84
2022/02/18 05:17:48;;;;;;;3.50;2.22;;;;;;;2.28;68.55;95850.89;1659902;86;20991;-84
2022/02/18 05:20:11;;;;;;;3.90;2.40;;;;;;;2.25;68.47;95844.74;1659606;86;21551;-84
2022/02/18 05:22:37;;;;;;;4.12;2.40;;;;;;;2.23;68.48;95840.23;1693155;85;21095;-84
2022/02/18 05:25:03;;;;;;;3.58;2.45;;;;;;;2.20;68.38;95834.13;1713197;83;21007;-84
2022/02/18 05:27:28;;;;;;;4.28;2.60;;;;;;;2.18;68.14;95838.59;1725994;82;21047;-84
2022/02/18 05:29:54;;;;;;;4.10;2.58;;;;;;;2.18;67.93;95841.16;1705418;83;21063;-84
2022/02/18 05:32:20;;;;;;;19.65;7.90;;;;;;;2.18;67.82;95847.56;1726089;83;21058;-84
2022/02/18 05:34:46;;;;;;;101.78;43.17;;;;;;;2.16;67.81;95839.69;1726010;83;21011;-84
2022/02/18 05:37:12;;;;;;;183.75;78.30;;;;;;;2.16;67.92;95843.05;1726055;83;21730;-83
2022/02/18 05:39:38;;;;;;;65.10;23.73;;;;;;;2.14;67.45;95842.88;1726142;83;21433;-84
2022/02/18 05:42:04;;;;;;;87.00;27.67;;;;;;;2.15;67.65;95840.16;1726064;83;21018;-84
2022/02/18 05:44:34;;;;;;;52.30;12.60;;;;;;;2.15;67.38;95845.28;1726021;83;21035;-83
2022/02/18 05:46:59;;;;;;;17.87;5.75;;;;;;;2.16;67.15;95847.37;1724689;83;21477;-83
2022/02/18 05:49:26;;;;;;;59.73;24.32;;;;;;;2.17;67.05;95863.89;1725927;83;21028;-84
2022/02/18 05:51:52;;;;;;;61.35;22.13;;;;;;;2.20;67.01;95862.31;1726023;83;21381;-84
2022/02/18 05:54:17;;;;;;;92.37;27.20;;;;;;;2.23;67.03;95860.74;1726079;83;21022;-84
2022/02/18 05:56:43;;;;;;;59.55;17.60;;;;;;;2.27;67.19;95875.36;1705584;83;20999;-83
2022/02/18 05:59:09;;;;;;;61.33;17.05;;;;;;;2.30;67.13;95884.07;1725968;83;21031;-83
2022/02/18 06:01:35;;;;;;;56.18;16.23;;;;;;;2.32;67.22;95892.42;1725995;83;21015;-83
2022/02/18 06:04:01;;;;;;;14.98;4.85;;;;;;;2.32;67.23;95895.80;1725954;83;20987;-84
2022/02/18 06:06:30;;;;;;;42.17;13.83;;;;;;;2.33;67.31;95889.72;1725954;83;21003;-83
2022/02/18 06:08:54;;;;;;;47.40;19.60;;;;;;;2.35;67.30;95899.83;1724677;83;21058;-84
2022/02/18 06:11:20;;;;;;;104.23;29.10;;;;;;;2.36;67.59;95904.80;1726110;83;21370;-84
2022/02/18 06:13:45;;;;;;;41.73;13.28;;;;;;;2.36;67.75;95908.66;1726006;83;21079;-83
2022/02/18 06:16:11;;;;;;;41.13;13.72;;;;;;;2.37;68.04;95909.45;1725982;83;21071;-83
2022/02/18 06:18:37;;;;;;;42.88;15.03;;;;;;;2.39;68.16;95907.55;1725686;82;20983;-84
2022/02/18 06:21:03;;;;;;;79.22;24.40;;;;;;;2.42;68.40;95912.39;1726063;83;21162;-84
2022/02/18 06:23:29;;;;;;;38.80;12.10;;;;;;;2.43;68.23;95911.92;1727997;83;21102;-85
2022/02/18 06:25:55;;;;;;;17.05;5.80;;;;;;;2.44;68.41;95910.97;1727841;83;21002;-84
2022/02/18 06:28:21;;;;;;;49.38;15.83;;;;;;;2.43;68.29;95919.13;1727846;83;21031;-84
2022/02/18 06:30:47;;;;;;;49.42;14.68;;;;;;;2.42;68.36;95916.23;1727841;83;21374;-84
2022/02/18 06:33:12;;;;;;;40.25;14.07;;;;;;;2.40;68.36;95916.39;1727904;82;21078;-84
2022/02/18 06:35:39;;;;;;;21.65;6.03;;;;;;;2.39;68.22;95921.19;1727978;83;21074;-84
2022/02/18 06:38:07;;;;;;;32.85;10.65;;;;;;;2.38;68.33;95938.80;1728005;83;21377;-84
2022/02/18 06:40:33;;;;;;;50.05;18.82;;;;;;;2.38;68.37;95938.80;1727682;83;21480;-84
2022/02/18 06:42:59;;;;;;;11.75;3.98;;;;;;;2.38;68.33;95941.37;1727957;83;21015;-84
2022/02/18 06:45:25;;;;;;;94.65;26.82;;;;;;;2.39;68.30;95947.30;1728092;83;21019;-84
2022/02/18 06:47:52;;;;;;;28.80;10.45;;;;;;;2.39;68.31;95949.39;1727713;83;21027;-84
2022/02/18 06:50:18;;;;;;;60.88;18.15;;;;;;;2.39;68.23;95952.43;1727966;83;21094;-84
2022/02/18 06:52:44;;;;;;;44.58;13.03;;;;;;;2.39;68.11;95966.53;1728011;83;21015;-84
2022/02/18 06:55:11;;;;;;;37.45;12.33;;;;;;;2.39;68.14;95951.95;1728044;83;21062;-84
2022/02/18 06:57:46;;;;;;;34.08;10.85;;;;;;;2.39;68.01;95964.77;1727977;83;21018;-83
2022/02/18 07:00:14;;;;;;;27.10;11.22;;;;;;;2.40;67.89;95971.52;1727344;81;21062;-84
2022/02/18 07:02:40;;;;;;;15.63;5.87;;;;;;;2.40;67.66;95971.52;1701628;83;21096;-84
2022/02/18 07:05:08;;;;;;;25.37;7.30;;;;;;;2.40;67.29;95957.41;1727926;83;20987;-84
2022/02/18 07:07:35;;;;;;;40.67;18.62;;;;;;;2.41;67.25;95965.44;1727872;83;20975;-84
2022/02/18 07:10:02;;;;;;;72.12;21.45;;;;;;;2.42;67.09;95966.24;1727976;83;21405;-83
2022/02/18 07:12:29;;;;;;;33.48;9.05;;;;;;;2.41;66.85;95965.44;1727874;83;21015;-84
2022/02/18 07:14:55;;;;;;;23.60;7.37;;;;;;;2.42;66.66;95971.38;1728035;83;21023;-84
2022/02/18 07:17:25;;;;;;;23.57;7.80;;;;;;;2.45;66.96;95968.55;1727845;83;20971;-84
2022/02/18 07:19:52;;;;;;;48.30;14.93;;;;;;;2.47;66.71;95973.06;1727750;83;21022;-84
2022/02/18 07:22:17;;;;;;;22.82;7.47;;;;;;;2.49;66.22;95977.56;1704115;83;21046;-84
2022/02/18 07:24:45;;;;;;;24.05;8.03;;;;;;;2.51;65.84;95974.86;1688473;85;21014;-84
2022/02/18 07:27:10;;;;;;;46.88;24.18;;;;;;;2.54;66.11;95978.42;1688449;85;21365;-84
2022/02/18 07:29:36;;;;;;;41.35;16.55;;;;;;;2.57;66.09;95980.22;1688291;85;21117;-84
2022/02/18 07:32:02;;;;;;;43.83;14.65;;;;;;;2.58;65.86;95988.24;1688272;85;21111;-84
2022/02/18 07:34:28;;;;;;;51.00;22.30;;;;;;;2.60;65.40;95973.98;1688588;85;20999;-84
2022/02/18 07:36:54;;;;;;;45.98;18.45;;;;;;;2.63;65.61;95987.36;1688535;85;21018;-84
2022/02/18 07:39:20;;;;;;;177.93;76.40;;;;;;;2.66;66.00;95987.55;1688650;85;21006;-84
2022/02/18 07:41:45;;;;;;;68.50;29.25;;;;;;;2.67;65.61;95986.13;1688611;85;21369;-84
2022/02/18 07:44:11;;;;;;;57.48;17.90;;;;;;;2.70;65.67;95987.59;1688632;85;21110;-84
2022/02/18 07:46:37;;;;;;;52.05;19.00;;;;;;;2.74;65.65;95992.76;1688589;85;21014;-84
2022/02/18 07:49:03;;;;;;;44.88;14.90;;;;;;;2.77;65.11;95978.39;1688159;85;21106;-83
2022/02/18 07:51:28;;;;;;;11.38;4.47;;;;;;;2.83;65.21;95980.84;1688408;85;21477;-84
2022/02/18 07:53:54;;;;;;;13.50;5.58;;;;;;;2.87;64.90;95980.41;1688671;85;21015;-84
2022/02/18 07:56:20;;;;;;;17.77;6.45;;;;;;;2.96;64.74;95980.84;1688439;85;20994;-84
2022/02/18 07:58:46;;;;;;;36.33;13.43;;;;;;;3.03;64.56;95972.07;1688752;85;21421;-84
2022/02/18 08:01:17;;;;;;;26.33;12.58;;;;;;;3.08;63.34;95973.72;1683486;83;20967;-84
2022/02/18 08:03:42;;;;;;;10.05;4.83;;;;;;;3.16;63.30;95983.28;1667932;85;21079;-84
2022/02/18 08:06:08;;;;;;;16.35;6.35;;;;;;;3.23;63.55;95990.72;1688572;85;21102;-84
2022/02/18 08:08:36;;;;;;;19.73;7.03;;;;;;;3.29;63.71;95987.59;1688348;85;20975;-84
2022/02/18 08:11:01;;;;;;;19.65;7.33;;;;;;;3.38;62.85;95989.73;1688541;85;21063;-84
2022/02/18 08:13:27;;;;;;;12.65;4.53;;;;;;;3.44;63.09;95984.03;1688696;85;21487;-84
2022/02/18 08:15:52;;;;;;;10.88;3.67;;;;;;;3.51;62.39;95989.70;1688497;85;21082;-84
2022/02/18 08:18:20;;;;;;;26.15;9.30;;;;;;;3.57;62.08;95987.81;1688531;85;21138;-84
2022/02/18 08:20:47;;;;;;;7.60;3.02;;;;;;;3.65;62.62;95992.23;1688153;85;21082;-84
2022/02/18 08:23:12;;;;;;;23.12;9.40;;;;;;;3.73;62.00;95992.76;1722829;83;21071;-84
2022/02/18 08:25:38;;;;;;;8.78;3.20;;;;;;;3.78;62.22;96003.42;1728151;83;20971;-84
2022/02/18 08:28:04;;;;;;;6.58;2.67;;;;;;;3.85;61.59;96009.56;1728016;82;21046;-84
2022/02/18 08:30:30;;;;;;;6.60;3.00;;;;;;;3.93;62.02;96008.36;1728037;83;20977;-84
2022/02/18 08:32:56;;;;;;;8.03;2.10;;;;;;;3.99;61.49;95992.80;1728188;83;21091;-84
2022/02/18 08:35:22;;;;;;;4.37;1.42;;;;;;;4.05;61.75;95998.62;1727956;83;20975;-84
2022/02/18 08:37:48;;;;;;;18.42;10.43;;;;;;;4.08;61.68;96008.14;1727994;83;21038;-84
2022/02/18 08:40:14;;;;;;;15.00;7.35;;;;;;;4.09;61.34;96011.52;1728189;83;20995;-84
2022/02/18 08:42:39;;;;;;;21.87;9.43;;;;;;;4.12;60.81;95995.79;1728044;83;21436;-84
2022/02/18 08:45:07;;;;;;;17.32;7.83;;;;;;;4.14;60.63;96005.44;1728167;83;21023;-85
2022/02/18 08:47:33;;;;;;;14.83;6.87;;;;;;;4.17;60.67;96008.99;1727969;83;21074;-84
2022/02/18 08:49:59;;;;;;;7.97;6.37;;;;;;;4.15;60.45;96019.43;1727948;83;21126;-84
2022/02/18 08:52:24;;;;;;;9.93;3.45;;;;;;;4.11;60.46;95998.84;1697565;83;21508;-84
2022/02/18 08:54:50;;;;;;;9.83;4.97;;;;;;;4.09;59.99;95999.47;1728183;83;21007;-84
2022/02/18 08:57:16;;;;;;;4.22;2.20;;;;;;;4.09;60.67;96003.33;1728184;83;21061;-84
2022/02/18 08:59:42;;;;;;;5.10;2.47;;;;;;;4.09;60.22;96009.76;1728171;83;21374;-84
2022/02/18 09:02:09;;;;;;;13.43;5.65;;;;;;;4.12;60.76;96011.22;1728009;83;20979;-85
2022/02/18 09:04:35;;;;;;;7.62;2.80;;;;;;;4.15;60.27;96014.77;1728056;83;21006;-84
2022/02/18 09:07:00;;;;;;;13.38;5.58;;;;;;;4.18;60.44;96019.12;1728119;82;21114;-84
2022/02/18 09:09:26;;;;;;;10.50;3.98;;;;;;;4.23;60.28;96021.27;1728283;83;21083;-84
2022/02/18 09:11:52;;;;;;;6.20;3.15;;;;;;;4.24;60.10;96022.07;1728242;83;21531;-84
2022/02/18 09:14:18;;;;;;;6.90;1.80;;;;;;;4.18;60.31;96015.75;1727962;83;21061;-84
2022/02/18 09:16:44;;;;;;;3.77;1.65;;;;;;;4.15;60.61;96015.58;1728016;82;20983;-84
2022/02/18 09:19:10;;;;;;;8.15;2.95;;;;;;;4.14;60.58;96015.25;1728135;83;21382;-84
2022/02/18 09:21:36;;;;;;;7.37;2.92;;;;;;;4.17;60.93;96014.13;1727809;82;21107;-84
2022/02/18 09:24:01;;;;;;;9.20;5.40;;;;;;;4.21;60.62;96007.72;1727987;83;21070;-84
2022/02/18 09:26:27;;;;;;;4.47;1.50;;;;;;;4.33;60.47;96007.00;1728160;83;21019;-84
2022/02/18 09:28:54;;;;;;;17.37;7.03;;;;;;;4.41;60.54;96000.63;1727951;83;21065;-84
2022/02/18 09:31:20;;;;;;;6.00;2.70;;;;;;;4.54;60.70;95997.14;1727875;83;21046;-84
2022/02/18 09:33:47;;;;;;;9.98;4.78;;;;;;;4.66;60.53;95998.48;1728184;83;21039;-84
2022/02/18 09:36:12;;;;;;;4.50;2.30;;;;;;;4.78;60.89;96003.69;1728172;83;21042;-84
2022/02/18 09:38:38;;;;;;;7.50;2.10;;;;;;;4.90;60.36;96004.71;1697486;83;20964;-84
2022/02/18 09:41:06;;;;;;;5.00;2.37;;;;;;;5.00;60.00;96004.08;1728039;83;20971;-84
2022/02/18 09:43:32;;;;;;;7.15;3.35;;;;;;;5.08;60.72;96002.84;1727971;83;20995;-84
2022/02/18 09:45:57;;;;;;;8.10;2.85;;;;;;;5.18;60.26;96006.06;1727876;83;21035;-84
2022/02/18 09:48:23;;;;;;;6.60;3.85;;;;;;;5.28;60.25;96003.36;1728078;83;21361;-84
2022/02/18 09:50:49;;;;;;;7.72;2.70;;;;;;;5.34;60.82;95998.38;1727940;83;21058;-84
2022/02/18 09:53:15;;;;;;;6.65;2.20;;;;;;;5.41;61.43;95995.98;1728102;83;21079;-84
2022/02/18 09:55:40;;;;;;;5.37;2.70;;;;;;;5.48;61.20;96004.68;1727999;83;21385;-84
2022/02/18 09:58:07;;;;;;;5.75;1.95;;;;;;;5.49;60.80;96002.42;1697299;83;21003;-84
2022/02/18 10:00:34;;;;;;;6.35;2.02;;;;;;;5.55;60.94;96011.31;1728053;83;20987;-84
2022/02/18 10:03:00;;;;;;;4.30;1.75;;;;;;;5.61;61.09;96011.95;1728042;83;21003;-84
2022/02/18 10:05:26;;;;;;;4.10;2.10;;;;;;;5.67;61.25;96003.08;1728286;83;20968;-84
2022/02/18 10:08:14;;;;;;;4.22;1.98;;;;;;;5.72;60.60;96004.72;1727970;83;20987;-84
2022/02/18 10:10:42;;;;;;;7.10;2.52;;;;;;;5.79;60.44;96004.06;1727874;83;21087;-84
2022/02/18 10:13:32;;;;;;;6.10;2.40;;;;;;;5.86;60.57;96008.43;1727958;83;21018;-85
2022/02/18 10:15:59;;;;;;;7.55;3.12;;;;;;;5.95;60.30;96010.53;1727824;83;21004;-85
2022/02/18 10:18:26;;;;;;;9.23;2.20;;;;;;;6.06;60.56;95995.23;1727944;82;20984;-84
2022/02/18 10:20:53;;;;;;;8.65;2.45;;;;;;;6.09;60.40;95997.48;1719146;81;21418;-85
2022/02/18 10:23:21;;;;;;;4.90;1.90;;;;;;;6.14;60.63;95996.01;1723852;83;21106;-84
2022/02/18 10:25:48;;;;;;;7.20;2.58;;;;;;;6.23;59.83;95998.91;1728159;83;21040;-85
2022/02/18 10:28:16;;;;;;;5.22;2.35;;;;;;;6.29;59.16;95990.50;1653060;83;21027;-84
2022/02/18 10:30:43;;;;;;;7.12;4.00;;;;;;;6.29;59.76;95984.05;1727915;83;21011;-84
2022/02/18 10:33:25;;;;;;;5.95;3.35;;;;;;;6.35;59.98;95996.00;1727870;82;21484;-84
2022/02/18 10:36:03;;;;;;;7.15;2.10;;;;;;;6.43;60.20;95977.90;1728072;83;20991;-85
2022/02/18 10:38:36;;;;;;;5.72;2.00;;;;;;;6.52;58.90;95969.17;1728235;83;21034;-85
2022/02/18 10:41:19;;;;;;;7.30;2.58;;;;;;;6.51;59.12;95974.02;1727517;83;20995;-84
2022/02/18 10:43:45;;;;;;;7.08;2.15;;;;;;;6.49;58.89;95965.61;1727321;83;20976;-84
2022/02/18 10:46:11;;;;;;;6.50;2.50;;;;;;;6.56;59.00;95967.38;1728187;83;21035;-85
2022/02/18 10:48:53;;;;;;;6.25;2.25;;;;;;;6.63;58.97;95967.02;1728051;83;20979;-84
2022/02/18 10:51:24;;;;;;;4.97;1.70;;;;;;;6.70;58.81;95960.72;1728045;83;21078;-84
2022/02/18 10:53:50;;;;;;;6.83;2.27;;;;;;;6.77;57.17;95961.64;1727820;83;21011;-84
2022/02/18 10:56:18;;;;;;;5.12;2.40;;;;;;;6.72;57.94;95962.64;1727962;83;21007;-84
2022/02/18 10:58:50;;;;;;;3.72;1.72;;;;;;;6.67;57.56;95961.05;1727964;82;21402;-85
2022/02/18 11:01:24;;;;;;;7.55;2.12;;;;;;;6.72;57.39;95965.70;1727869;83;21050;-84
2022/02/18 11:03:58;;;;;;;7.33;1.77;;;;;;;6.82;57.37;95967.58;1728048;83;21015;-85
2022/02/18 11:06:33;;;;;;;4.78;1.67;;;;;;;6.75;56.58;95957.13;1723331;83;21019;-84
2022/02/18 11:09:06;;;;;;;4.40;1.92;;;;;;;6.71;56.36;95952.48;1728162;83;21349;-85
2022/02/18 11:11:42;;;;;;;5.78;1.62;;;;;;;6.72;57.14;95943.77;1728086;82;21540;-84
2022/02/18 11:14:12;;;;;;;6.20;2.15;;;;;;;6.78;56.32;95940.50;1727457;83;21051;-84
2022/02/18 11:16:52;;;;;;;4.83;1.92;;;;;;;6.87;56.27;95938.20;1727299;83;21426;-84
2022/02/18 11:19:15;;;;;;;6.05;3.40;;;;;;;6.95;55.46;95944.60;1727451;83;21123;-85
2022/02/18 11:21:41;;;;;;;4.67;1.75;;;;;;;7.03;56.09;95932.15;1716758;81;21060;-84
2022/02/18 11:24:10;;;;;;;3.45;1.80;;;;;;;7.08;55.74;95922.09;1713238;83;21113;-85
2022/02/18 11:26:36;;;;;;;6.47;2.05;;;;;;;7.17;56.04;95935.30;1727666;83;21058;-85
2022/02/18 11:29:03;;;;;;;3.12;1.55;;;;;;;7.23;55.63;95934.11;1697250;83;21872;-85
2022/02/18 11:31:38;;;;;;;6.37;2.92;;;;;;;7.31;55.37;95938.89;1728082;82;21042;-84
2022/02/18 11:34:35;;;;;;;5.40;1.95;;;;;;;7.36;54.42;95933.55;1728059;83;21019;-85